sensor_id;sensor_type;location;lat;lon;timestamp;P1;durP1;ratioP1;P2;durP2;ratioP2
60292;SDS011;52402;52.670;6.750;2022-12-07T00:02:22;10.73;;;4.60;;
60292;SDS011;52402;52.670;6.750;2022-12-07T00:04:48;9.80;;;4.25;;
60292;SDS011;52402;52.670;6.750;2022-12-07T00:07:14;8.80;;;3.70;;
60292;SDS011;52402;52.670;6.750;2022-12-07T00:09:40;9.35;;;3.90;;
60292;SDS011;52402;52.670;6.750;2022-12-07T00:12:06;11.77;;;4.55;;
60292;SDS011;52402;52.670;6.750;2022-12-07T00:14:33;10.10;;;3.92;;
60292;SDS011;52402;52.670;6.750;2022-12-07T00:16:58;10.70;;;4.00;;
60292;SDS011;52402;52.670;6.750;2022-12-07T00:19:24;11.40;;;4.30;;
60292;SDS011;52402;52.670;6.750;2022-12-07T00:21:49;10.00;;;4.20;;
60292;SDS011;52402;52.670;6.750;2022-12-07T00:24:15;10.07;;;4.00;;
60292;SDS011;52402;52.670;6.750;2022-12-07T00:26:41;9.90;;;3.80;;
60292;SDS011;52402;52.670;6.750;2022-12-07T00:29:15;11.95;;;3.88;;
60292;SDS011;52402;52.670;6.750;2022-12-07T00:31:45;8.93;;;3.88;;
60292;SDS011;52402;52.670;6.750;2022-12-07T00:34:12;9.20;;;3.60;;
60292;SDS011;52402;52.670;6.750;2022-12-07T00:36:40;10.40;;;3.70;;
60292;SDS011;52402;52.670;6.750;2022-12-07T00:39:06;9.77;;;3.63;;
60292;SDS011;52402;52.670;6.750;2022-12-07T00:41:31;10.75;;;3.45;;
60292;SDS011;52402;52.670;6.750;2022-12-07T00:43:57;9.82;;;3.13;;
60292;SDS011;52402;52.670;6.750;2022-12-07T00:46:23;8.50;;;3.33;;
60292;SDS011;52402;52.670;6.750;2022-12-07T00:48:49;9.85;;;3.28;;
60292;SDS011;52402;52.670;6.750;2022-12-07T00:51:17;10.05;;;3.83;;
60292;SDS011;52402;52.670;6.750;2022-12-07T00:53:44;9.90;;;2.97;;
60292;SDS011;52402;52.670;6.750;2022-12-07T00:56:14;10.27;;;3.00;;
60292;SDS011;52402;52.670;6.750;2022-12-07T00:58:41;11.80;;;3.20;;
60292;SDS011;52402;52.670;6.750;2022-12-07T01:01:07;9.18;;;3.70;;
60292;SDS011;52402;52.670;6.750;2022-12-07T01:03:34;12.20;;;3.78;;
60292;SDS011;52402;52.670;6.750;2022-12-07T01:06:00;7.85;;;3.28;;
60292;SDS011;52402;52.670;6.750;2022-12-07T01:08:26;10.68;;;3.42;;
60292;SDS011;52402;52.670;6.750;2022-12-07T01:11:00;9.80;;;3.42;;
60292;SDS011;52402;52.670;6.750;2022-12-07T01:13:28;11.07;;;3.67;;
60292;SDS011;52402;52.670;6.750;2022-12-07T01:15:56;14.93;;;3.55;;
60292;SDS011;52402;52.670;6.750;2022-12-07T01:18:27;11.38;;;3.45;;
60292;SDS011;52402;52.670;6.750;2022-12-07T01:21:13;10.48;;;3.30;;
60292;SDS011;52402;52.670;6.750;2022-12-07T01:23:41;13.15;;;4.07;;
60292;SDS011;52402;52.670;6.750;2022-12-07T01:26:09;14.88;;;3.50;;
60292;SDS011;52402;52.670;6.750;2022-12-07T01:28:36;11.77;;;4.10;;
60292;SDS011;52402;52.670;6.750;2022-12-07T01:31:03;9.65;;;3.05;;
60292;SDS011;52402;52.670;6.750;2022-12-07T01:33:31;11.48;;;3.13;;
60292;SDS011;52402;52.670;6.750;2022-12-07T01:36:08;9.98;;;3.45;;
60292;SDS011;52402;52.670;6.750;2022-12-07T01:38:37;12.05;;;3.25;;
60292;SDS011;52402;52.670;6.750;2022-12-07T01:41:02;11.65;;;3.30;;
60292;SDS011;52402;52.670;6.750;2022-12-07T01:43:29;13.10;;;3.50;;
60292;SDS011;52402;52.670;6.750;2022-12-07T01:45:55;10.10;;;2.80;;
60292;SDS011;52402;52.670;6.750;2022-12-07T01:48:23;10.73;;;3.65;;
60292;SDS011;52402;52.670;6.750;2022-12-07T01:50:52;13.00;;;3.20;;
60292;SDS011;52402;52.670;6.750;2022-12-07T01:53:21;11.95;;;2.92;;
60292;SDS011;52402;52.670;6.750;2022-12-07T01:55:52;14.90;;;3.00;;
60292;SDS011;52402;52.670;6.750;2022-12-07T01:58:18;10.48;;;3.20;;
60292;SDS011;52402;52.670;6.750;2022-12-07T02:00:44;12.20;;;3.40;;
60292;SDS011;52402;52.670;6.750;2022-12-07T02:03:18;12.63;;;3.40;;
60292;SDS011;52402;52.670;6.750;2022-12-07T02:05:49;10.93;;;2.88;;
60292;SDS011;52402;52.670;6.750;2022-12-07T02:08:16;10.18;;;2.88;;
60292;SDS011;52402;52.670;6.750;2022-12-07T02:10:42;11.50;;;3.20;;
60292;SDS011;52402;52.670;6.750;2022-12-07T02:24:14;14.43;;;3.10;;
60292;SDS011;52402;52.670;6.750;2022-12-07T02:29:36;11.55;;;2.70;;
60292;SDS011;52402;52.670;6.750;2022-12-07T02:32:08;8.90;;;2.50;;
60292;SDS011;52402;52.670;6.750;2022-12-07T02:35:05;8.27;;;2.40;;
60292;SDS011;52402;52.670;6.750;2022-12-07T02:40:33;10.95;;;2.88;;
60292;SDS011;52402;52.670;6.750;2022-12-07T02:45:35;11.30;;;3.35;;
60292;SDS011;52402;52.670;6.750;2022-12-07T02:48:03;8.38;;;2.50;;
60292;SDS011;52402;52.670;6.750;2022-12-07T02:50:31;10.00;;;2.90;;
60292;SDS011;52402;52.670;6.750;2022-12-07T02:52:57;11.40;;;3.30;;
60292;SDS011;52402;52.670;6.750;2022-12-07T02:55:24;6.60;;;1.33;;
60292;SDS011;52402;52.670;6.750;2022-12-07T02:57:57;8.27;;;2.78;;
60292;SDS011;52402;52.670;6.750;2022-12-07T03:00:27;11.23;;;2.60;;
60292;SDS011;52402;52.670;6.750;2022-12-07T03:03:04;9.88;;;2.88;;
60292;SDS011;52402;52.670;6.750;2022-12-07T03:08:43;13.55;;;3.50;;
60292;SDS011;52402;52.670;6.750;2022-12-07T03:11:10;9.90;;;3.20;;
60292;SDS011;52402;52.670;6.750;2022-12-07T03:16:35;10.23;;;2.30;;
60292;SDS011;52402;52.670;6.750;2022-12-07T03:19:10;12.95;;;3.60;;
60292;SDS011;52402;52.670;6.750;2022-12-07T03:21:40;13.55;;;2.75;;
60292;SDS011;52402;52.670;6.750;2022-12-07T03:24:32;12.45;;;2.55;;
60292;SDS011;52402;52.670;6.750;2022-12-07T03:27:06;13.60;;;3.35;;
60292;SDS011;52402;52.670;6.750;2022-12-07T03:29:55;12.68;;;2.75;;
60292;SDS011;52402;52.670;6.750;2022-12-07T03:32:28;5.88;;;1.10;;
60292;SDS011;52402;52.670;6.750;2022-12-07T03:37:34;14.10;;;2.50;;
60292;SDS011;52402;52.670;6.750;2022-12-07T03:42:32;11.88;;;2.85;;
60292;SDS011;52402;52.670;6.750;2022-12-07T03:44:58;15.30;;;2.70;;
60292;SDS011;52402;52.670;6.750;2022-12-07T03:47:37;9.38;;;2.50;;
60292;SDS011;52402;52.670;6.750;2022-12-07T03:55:45;13.02;;;2.80;;
60292;SDS011;52402;52.670;6.750;2022-12-07T03:58:17;11.35;;;2.67;;
60292;SDS011;52402;52.670;6.750;2022-12-07T04:00:46;9.45;;;2.50;;
60292;SDS011;52402;52.670;6.750;2022-12-07T04:03:13;7.80;;;2.30;;
60292;SDS011;52402;52.670;6.750;2022-12-07T04:05:39;12.75;;;2.60;;
60292;SDS011;52402;52.670;6.750;2022-12-07T04:08:05;13.60;;;3.05;;
60292;SDS011;52402;52.670;6.750;2022-12-07T04:10:31;11.65;;;2.33;;
60292;SDS011;52402;52.670;6.750;2022-12-07T04:12:56;14.70;;;2.70;;
60292;SDS011;52402;52.670;6.750;2022-12-07T04:15:22;11.68;;;2.35;;
60292;SDS011;52402;52.670;6.750;2022-12-07T04:17:48;11.73;;;2.45;;
60292;SDS011;52402;52.670;6.750;2022-12-07T04:20:13;10.65;;;2.50;;
60292;SDS011;52402;52.670;6.750;2022-12-07T04:22:39;12.48;;;2.40;;
60292;SDS011;52402;52.670;6.750;2022-12-07T04:25:05;12.10;;;2.40;;
60292;SDS011;52402;52.670;6.750;2022-12-07T04:27:31;13.32;;;2.63;;
60292;SDS011;52402;52.670;6.750;2022-12-07T04:29:56;15.52;;;2.70;;
60292;SDS011;52402;52.670;6.750;2022-12-07T04:32:22;10.30;;;2.17;;
60292;SDS011;52402;52.670;6.750;2022-12-07T04:34:49;13.00;;;2.60;;
60292;SDS011;52402;52.670;6.750;2022-12-07T04:37:14;14.05;;;2.85;;
60292;SDS011;52402;52.670;6.750;2022-12-07T04:39:40;11.32;;;2.20;;
60292;SDS011;52402;52.670;6.750;2022-12-07T04:42:06;11.15;;;2.30;;
60292;SDS011;52402;52.670;6.750;2022-12-07T04:44:32;13.20;;;3.05;;
60292;SDS011;52402;52.670;6.750;2022-12-07T04:46:57;11.45;;;2.30;;
60292;SDS011;52402;52.670;6.750;2022-12-07T04:49:23;4.82;;;1.08;;
60292;SDS011;52402;52.670;6.750;2022-12-07T04:51:49;10.60;;;2.15;;
60292;SDS011;52402;52.670;6.750;2022-12-07T04:54:16;14.57;;;2.67;;
60292;SDS011;52402;52.670;6.750;2022-12-07T04:56:42;10.77;;;2.30;;
60292;SDS011;52402;52.670;6.750;2022-12-07T04:59:09;11.38;;;2.40;;
60292;SDS011;52402;52.670;6.750;2022-12-07T05:01:36;13.27;;;2.45;;
60292;SDS011;52402;52.670;6.750;2022-12-07T05:04:02;11.25;;;2.45;;
60292;SDS011;52402;52.670;6.750;2022-12-07T05:06:28;13.35;;;2.55;;
60292;SDS011;52402;52.670;6.750;2022-12-07T05:08:53;9.55;;;2.88;;
60292;SDS011;52402;52.670;6.750;2022-12-07T05:11:19;12.27;;;2.83;;
60292;SDS011;52402;52.670;6.750;2022-12-07T05:14:04;10.73;;;2.80;;
60292;SDS011;52402;52.670;6.750;2022-12-07T05:16:32;10.20;;;2.05;;
60292;SDS011;52402;52.670;6.750;2022-12-07T05:18:58;13.60;;;2.53;;
60292;SDS011;52402;52.670;6.750;2022-12-07T05:21:24;11.30;;;2.20;;
60292;SDS011;52402;52.670;6.750;2022-12-07T05:23:49;13.02;;;2.22;;
60292;SDS011;52402;52.670;6.750;2022-12-07T05:26:15;10.18;;;2.22;;
60292;SDS011;52402;52.670;6.750;2022-12-07T05:28:41;11.70;;;2.75;;
60292;SDS011;52402;52.670;6.750;2022-12-07T05:31:06;12.07;;;2.42;;
60292;SDS011;52402;52.670;6.750;2022-12-07T05:33:32;9.45;;;1.80;;
60292;SDS011;52402;52.670;6.750;2022-12-07T05:35:58;10.32;;;2.10;;
60292;SDS011;52402;52.670;6.750;2022-12-07T05:38:23;10.80;;;2.13;;
60292;SDS011;52402;52.670;6.750;2022-12-07T05:40:50;9.73;;;2.17;;
60292;SDS011;52402;52.670;6.750;2022-12-07T05:43:15;10.05;;;1.95;;
60292;SDS011;52402;52.670;6.750;2022-12-07T05:45:41;11.43;;;2.03;;
60292;SDS011;52402;52.670;6.750;2022-12-07T05:48:07;14.55;;;2.40;;
60292;SDS011;52402;52.670;6.750;2022-12-07T05:50:32;10.82;;;2.38;;
60292;SDS011;52402;52.670;6.750;2022-12-07T05:52:58;10.68;;;2.35;;
60292;SDS011;52402;52.670;6.750;2022-12-07T05:55:24;11.43;;;2.15;;
60292;SDS011;52402;52.670;6.750;2022-12-07T05:57:49;9.00;;;2.22;;
60292;SDS011;52402;52.670;6.750;2022-12-07T06:00:34;9.05;;;2.30;;
60292;SDS011;52402;52.670;6.750;2022-12-07T06:02:59;12.20;;;2.75;;
60292;SDS011;52402;52.670;6.750;2022-12-07T06:05:25;13.82;;;3.10;;
60292;SDS011;52402;52.670;6.750;2022-12-07T06:07:51;10.70;;;2.58;;
60292;SDS011;52402;52.670;6.750;2022-12-07T06:10:16;11.77;;;2.20;;
60292;SDS011;52402;52.670;6.750;2022-12-07T06:12:42;10.02;;;2.42;;
60292;SDS011;52402;52.670;6.750;2022-12-07T06:15:10;12.10;;;2.58;;
60292;SDS011;52402;52.670;6.750;2022-12-07T06:17:38;14.45;;;3.10;;
60292;SDS011;52402;52.670;6.750;2022-12-07T06:20:04;9.30;;;2.20;;
60292;SDS011;52402;52.670;6.750;2022-12-07T06:22:30;12.38;;;3.10;;
60292;SDS011;52402;52.670;6.750;2022-12-07T06:24:56;15.25;;;4.22;;
60292;SDS011;52402;52.670;6.750;2022-12-07T06:27:21;11.00;;;2.80;;
60292;SDS011;52402;52.670;6.750;2022-12-07T06:29:47;13.50;;;3.40;;
60292;SDS011;52402;52.670;6.750;2022-12-07T06:32:12;15.27;;;3.35;;
60292;SDS011;52402;52.670;6.750;2022-12-07T06:34:38;10.90;;;3.60;;
60292;SDS011;52402;52.670;6.750;2022-12-07T06:37:03;11.98;;;3.00;;
60292;SDS011;52402;52.670;6.750;2022-12-07T06:39:29;9.70;;;2.67;;
60292;SDS011;52402;52.670;6.750;2022-12-07T06:41:55;10.68;;;2.50;;
60292;SDS011;52402;52.670;6.750;2022-12-07T06:44:22;13.43;;;2.80;;
60292;SDS011;52402;52.670;6.750;2022-12-07T06:46:49;14.20;;;3.13;;
60292;SDS011;52402;52.670;6.750;2022-12-07T06:49:15;12.43;;;3.30;;
60292;SDS011;52402;52.670;6.750;2022-12-07T06:51:42;18.40;;;3.95;;
60292;SDS011;52402;52.670;6.750;2022-12-07T06:54:08;10.65;;;2.95;;
60292;SDS011;52402;52.670;6.750;2022-12-07T06:56:35;12.38;;;3.05;;
60292;SDS011;52402;52.670;6.750;2022-12-07T06:59:00;11.65;;;2.60;;
60292;SDS011;52402;52.670;6.750;2022-12-07T07:01:28;13.50;;;2.65;;
60292;SDS011;52402;52.670;6.750;2022-12-07T07:03:54;10.10;;;2.05;;
60292;SDS011;52402;52.670;6.750;2022-12-07T07:06:20;14.20;;;2.75;;
60292;SDS011;52402;52.670;6.750;2022-12-07T07:08:47;10.80;;;2.42;;
60292;SDS011;52402;52.670;6.750;2022-12-07T07:11:15;11.55;;;2.45;;
60292;SDS011;52402;52.670;6.750;2022-12-07T07:13:41;11.05;;;2.40;;
60292;SDS011;52402;52.670;6.750;2022-12-07T07:16:07;14.02;;;3.50;;
60292;SDS011;52402;52.670;6.750;2022-12-07T07:18:32;10.73;;;3.17;;
60292;SDS011;52402;52.670;6.750;2022-12-07T07:20:58;14.85;;;3.15;;
60292;SDS011;52402;52.670;6.750;2022-12-07T07:23:24;8.13;;;3.05;;
60292;SDS011;52402;52.670;6.750;2022-12-07T07:25:49;14.63;;;3.25;;
60292;SDS011;52402;52.670;6.750;2022-12-07T07:28:15;13.23;;;3.65;;
60292;SDS011;52402;52.670;6.750;2022-12-07T07:30:41;10.15;;;2.95;;
60292;SDS011;52402;52.670;6.750;2022-12-07T07:33:07;13.88;;;3.60;;
60292;SDS011;52402;52.670;6.750;2022-12-07T07:35:35;13.45;;;3.63;;
60292;SDS011;52402;52.670;6.750;2022-12-07T07:38:01;12.32;;;3.22;;
60292;SDS011;52402;52.670;6.750;2022-12-07T07:40:27;11.18;;;2.72;;
60292;SDS011;52402;52.670;6.750;2022-12-07T07:42:56;12.23;;;2.63;;
60292;SDS011;52402;52.670;6.750;2022-12-07T07:45:23;13.38;;;3.88;;
60292;SDS011;52402;52.670;6.750;2022-12-07T07:47:49;12.88;;;3.33;;
60292;SDS011;52402;52.670;6.750;2022-12-07T07:50:15;18.48;;;5.00;;
60292;SDS011;52402;52.670;6.750;2022-12-07T07:52:41;13.65;;;3.03;;
60292;SDS011;52402;52.670;6.750;2022-12-07T07:55:07;12.05;;;2.65;;
60292;SDS011;52402;52.670;6.750;2022-12-07T07:57:34;11.50;;;2.63;;
60292;SDS011;52402;52.670;6.750;2022-12-07T08:00:00;16.40;;;3.67;;
60292;SDS011;52402;52.670;6.750;2022-12-07T08:02:26;11.65;;;2.80;;
60292;SDS011;52402;52.670;6.750;2022-12-07T08:04:54;12.82;;;3.22;;
60292;SDS011;52402;52.670;6.750;2022-12-07T08:07:20;11.15;;;2.85;;
60292;SDS011;52402;52.670;6.750;2022-12-07T08:09:46;12.27;;;2.80;;
60292;SDS011;52402;52.670;6.750;2022-12-07T08:12:12;12.55;;;2.92;;
60292;SDS011;52402;52.670;6.750;2022-12-07T08:14:37;17.42;;;3.58;;
60292;SDS011;52402;52.670;6.750;2022-12-07T08:17:03;11.50;;;2.80;;
60292;SDS011;52402;52.670;6.750;2022-12-07T08:19:29;11.30;;;3.90;;
60292;SDS011;52402;52.670;6.750;2022-12-07T08:21:55;11.77;;;3.00;;
60292;SDS011;52402;52.670;6.750;2022-12-07T08:24:21;14.00;;;3.33;;
60292;SDS011;52402;52.670;6.750;2022-12-07T08:26:47;10.77;;;2.90;;
60292;SDS011;52402;52.670;6.750;2022-12-07T08:29:15;13.65;;;3.53;;
60292;SDS011;52402;52.670;6.750;2022-12-07T08:31:40;11.73;;;2.88;;
60292;SDS011;52402;52.670;6.750;2022-12-07T08:34:06;13.00;;;2.90;;
60292;SDS011;52402;52.670;6.750;2022-12-07T08:36:31;10.88;;;2.60;;
60292;SDS011;52402;52.670;6.750;2022-12-07T08:38:57;6.18;;;1.20;;
60292;SDS011;52402;52.670;6.750;2022-12-07T08:41:23;13.27;;;2.55;;
60292;SDS011;52402;52.670;6.750;2022-12-07T08:43:48;12.85;;;3.10;;
60292;SDS011;52402;52.670;6.750;2022-12-07T08:51:43;5.78;;;1.23;;
60292;SDS011;52402;52.670;6.750;2022-12-07T08:54:10;10.75;;;2.80;;
60292;SDS011;52402;52.670;6.750;2022-12-07T08:56:39;9.90;;;2.40;;
60292;SDS011;52402;52.670;6.750;2022-12-07T08:59:05;9.68;;;2.60;;
60292;SDS011;52402;52.670;6.750;2022-12-07T09:01:32;8.60;;;3.17;;
60292;SDS011;52402;52.670;6.750;2022-12-07T09:03:58;10.70;;;3.03;;
60292;SDS011;52402;52.670;6.750;2022-12-07T09:06:23;12.38;;;3.13;;
60292;SDS011;52402;52.670;6.750;2022-12-07T09:08:50;13.18;;;3.22;;
60292;SDS011;52402;52.670;6.750;2022-12-07T09:11:19;9.90;;;2.40;;
60292;SDS011;52402;52.670;6.750;2022-12-07T09:13:44;11.05;;;2.80;;
60292;SDS011;52402;52.670;6.750;2022-12-07T09:16:10;10.20;;;3.28;;
60292;SDS011;52402;52.670;6.750;2022-12-07T09:18:35;11.13;;;3.97;;
60292;SDS011;52402;52.670;6.750;2022-12-07T09:21:03;10.00;;;3.58;;
60292;SDS011;52402;52.670;6.750;2022-12-07T09:23:29;12.57;;;3.55;;
60292;SDS011;52402;52.670;6.750;2022-12-07T09:25:54;10.23;;;3.65;;
60292;SDS011;52402;52.670;6.750;2022-12-07T09:28:23;9.20;;;1.90;;
60292;SDS011;52402;52.670;6.750;2022-12-07T09:30:49;12.02;;;2.78;;
60292;SDS011;52402;52.670;6.750;2022-12-07T09:33:15;12.80;;;2.97;;
60292;SDS011;52402;52.670;6.750;2022-12-07T09:35:47;9.32;;;2.85;;
60292;SDS011;52402;52.670;6.750;2022-12-07T09:38:14;11.98;;;2.97;;
60292;SDS011;52402;52.670;6.750;2022-12-07T09:40:41;11.40;;;2.72;;
60292;SDS011;52402;52.670;6.750;2022-12-07T09:43:18;13.40;;;3.10;;
60292;SDS011;52402;52.670;6.750;2022-12-07T09:45:47;11.50;;;3.10;;
60292;SDS011;52402;52.670;6.750;2022-12-07T09:48:19;11.38;;;2.60;;
60292;SDS011;52402;52.670;6.750;2022-12-07T09:50:47;9.77;;;2.83;;
60292;SDS011;52402;52.670;6.750;2022-12-07T09:53:23;8.95;;;2.80;;
60292;SDS011;52402;52.670;6.750;2022-12-07T09:55:58;10.77;;;2.92;;
60292;SDS011;52402;52.670;6.750;2022-12-07T09:58:26;11.82;;;2.65;;
60292;SDS011;52402;52.670;6.750;2022-12-07T10:00:55;11.02;;;2.67;;
60292;SDS011;52402;52.670;6.750;2022-12-07T10:03:26;11.73;;;2.67;;
60292;SDS011;52402;52.670;6.750;2022-12-07T10:05:53;12.18;;;2.90;;
60292;SDS011;52402;52.670;6.750;2022-12-07T10:08:19;10.98;;;3.05;;
60292;SDS011;52402;52.670;6.750;2022-12-07T10:10:46;10.95;;;2.42;;
60292;SDS011;52402;52.670;6.750;2022-12-07T10:15:53;9.80;;;2.97;;
60292;SDS011;52402;52.670;6.750;2022-12-07T10:18:36;12.57;;;4.38;;
60292;SDS011;52402;52.670;6.750;2022-12-07T10:26:32;10.02;;;3.00;;
60292;SDS011;52402;52.670;6.750;2022-12-07T10:31:51;11.50;;;2.35;;
60292;SDS011;52402;52.670;6.750;2022-12-07T10:34:34;14.32;;;2.78;;
60292;SDS011;52402;52.670;6.750;2022-12-07T10:37:14;11.18;;;2.30;;
60292;SDS011;52402;52.670;6.750;2022-12-07T10:47:51;11.43;;;2.33;;
60292;SDS011;52402;52.670;6.750;2022-12-07T10:50:28;11.25;;;2.15;;
60292;SDS011;52402;52.670;6.750;2022-12-07T10:58:48;10.07;;;2.17;;
60292;SDS011;52402;52.670;6.750;2022-12-07T11:01:33;12.45;;;4.03;;
60292;SDS011;52402;52.670;6.750;2022-12-07T11:06:55;11.13;;;2.83;;
60292;SDS011;52402;52.670;6.750;2022-12-07T11:18:07;13.90;;;2.53;;
60292;SDS011;52402;52.670;6.750;2022-12-07T11:26:23;8.38;;;2.00;;
60292;SDS011;52402;52.670;6.750;2022-12-07T11:36:50;9.55;;;2.20;;
60292;SDS011;52402;52.670;6.750;2022-12-07T11:41:48;7.97;;;1.80;;
60292;SDS011;52402;52.670;6.750;2022-12-07T11:47:27;13.02;;;3.17;;
60292;SDS011;52402;52.670;6.750;2022-12-07T11:50:10;11.13;;;4.32;;
60292;SDS011;52402;52.670;6.750;2022-12-07T11:52:49;8.68;;;3.35;;
60292;SDS011;52402;52.670;6.750;2022-12-07T11:55:26;12.05;;;3.30;;
60292;SDS011;52402;52.670;6.750;2022-12-07T11:58:35;12.50;;;2.90;;
60292;SDS011;52402;52.670;6.750;2022-12-07T12:03:40;9.20;;;3.30;;
60292;SDS011;52402;52.670;6.750;2022-12-07T12:06:10;10.35;;;2.95;;
60292;SDS011;52402;52.670;6.750;2022-12-07T12:08:38;9.95;;;2.67;;
60292;SDS011;52402;52.670;6.750;2022-12-07T12:16:56;12.25;;;4.90;;
60292;SDS011;52402;52.670;6.750;2022-12-07T12:19:55;10.75;;;3.28;;
60292;SDS011;52402;52.670;6.750;2022-12-07T12:22:33;11.95;;;3.15;;
60292;SDS011;52402;52.670;6.750;2022-12-07T12:25:00;9.20;;;2.53;;
60292;SDS011;52402;52.670;6.750;2022-12-07T12:27:34;12.02;;;3.22;;
60292;SDS011;52402;52.670;6.750;2022-12-07T12:30:03;10.20;;;3.35;;
60292;SDS011;52402;52.670;6.750;2022-12-07T12:32:50;10.00;;;2.78;;
60292;SDS011;52402;52.670;6.750;2022-12-07T12:35:27;9.80;;;2.45;;
60292;SDS011;52402;52.670;6.750;2022-12-07T12:40:49;10.43;;;2.70;;
60292;SDS011;52402;52.670;6.750;2022-12-07T13:10:27;11.05;;;2.42;;
60292;SDS011;52402;52.670;6.750;2022-12-07T13:34:05;9.50;;;2.47;;
60292;SDS011;52402;52.670;6.750;2022-12-07T13:37:00;11.55;;;2.70;;
60292;SDS011;52402;52.670;6.750;2022-12-07T13:39:29;9.45;;;3.13;;
60292;SDS011;52402;52.670;6.750;2022-12-07T13:41:58;12.05;;;2.92;;
60292;SDS011;52402;52.670;6.750;2022-12-07T13:44:27;11.88;;;2.92;;
60292;SDS011;52402;52.670;6.750;2022-12-07T13:47:06;13.15;;;2.30;;
60292;SDS011;52402;52.670;6.750;2022-12-07T13:49:50;10.45;;;2.67;;
60292;SDS011;52402;52.670;6.750;2022-12-07T13:52:26;9.82;;;2.50;;
60292;SDS011;52402;52.670;6.750;2022-12-07T13:54:56;10.98;;;2.70;;
60292;SDS011;52402;52.670;6.750;2022-12-07T13:57:24;11.65;;;2.75;;
60292;SDS011;52402;52.670;6.750;2022-12-07T13:59:51;9.82;;;2.40;;
60292;SDS011;52402;52.670;6.750;2022-12-07T14:02:19;9.57;;;3.13;;
60292;SDS011;52402;52.670;6.750;2022-12-07T14:04:46;11.25;;;2.40;;
60292;SDS011;52402;52.670;6.750;2022-12-07T14:12:21;7.35;;;1.92;;
60292;SDS011;52402;52.670;6.750;2022-12-07T14:14:47;8.18;;;1.42;;
60292;SDS011;52402;52.670;6.750;2022-12-07T14:17:17;4.88;;;1.20;;
60292;SDS011;52402;52.670;6.750;2022-12-07T14:19:45;6.15;;;1.50;;
60292;SDS011;52402;52.670;6.750;2022-12-07T14:24:49;8.98;;;4.20;;
60292;SDS011;52402;52.670;6.750;2022-12-07T14:27:16;10.45;;;4.40;;
60292;SDS011;52402;52.670;6.750;2022-12-07T14:29:43;17.50;;;7.20;;
60292;SDS011;52402;52.670;6.750;2022-12-07T14:32:19;13.02;;;6.32;;
60292;SDS011;52402;52.670;6.750;2022-12-07T14:34:56;13.25;;;5.68;;
60292;SDS011;52402;52.670;6.750;2022-12-07T14:37:24;10.18;;;6.03;;
60292;SDS011;52402;52.670;6.750;2022-12-07T14:39:50;9.48;;;4.55;;
60292;SDS011;52402;52.670;6.750;2022-12-07T14:42:15;9.77;;;4.30;;
60292;SDS011;52402;52.670;6.750;2022-12-07T14:44:41;11.07;;;5.00;;
60292;SDS011;52402;52.670;6.750;2022-12-07T14:47:10;9.27;;;4.00;;
60292;SDS011;52402;52.670;6.750;2022-12-07T14:49:36;13.15;;;5.18;;
60292;SDS011;52402;52.670;6.750;2022-12-07T14:52:03;10.85;;;6.32;;
60292;SDS011;52402;52.670;6.750;2022-12-07T14:54:30;12.48;;;4.80;;
60292;SDS011;52402;52.670;6.750;2022-12-07T14:56:57;12.60;;;9.13;;
60292;SDS011;52402;52.670;6.750;2022-12-07T14:59:23;13.15;;;8.68;;
60292;SDS011;52402;52.670;6.750;2022-12-07T15:01:49;14.25;;;8.15;;
60292;SDS011;52402;52.670;6.750;2022-12-07T15:04:15;12.55;;;4.05;;
60292;SDS011;52402;52.670;6.750;2022-12-07T15:06:40;10.70;;;3.97;;
60292;SDS011;52402;52.670;6.750;2022-12-07T15:09:09;12.93;;;4.13;;
60292;SDS011;52402;52.670;6.750;2022-12-07T15:11:36;9.52;;;3.22;;
60292;SDS011;52402;52.670;6.750;2022-12-07T15:14:02;10.43;;;3.75;;
60292;SDS011;52402;52.670;6.750;2022-12-07T15:16:33;12.05;;;3.60;;
60292;SDS011;52402;52.670;6.750;2022-12-07T15:19:10;12.85;;;3.67;;
60292;SDS011;52402;52.670;6.750;2022-12-07T15:21:42;11.63;;;4.05;;
60292;SDS011;52402;52.670;6.750;2022-12-07T15:24:09;9.20;;;3.58;;
60292;SDS011;52402;52.670;6.750;2022-12-07T15:26:36;12.07;;;3.83;;
60292;SDS011;52402;52.670;6.750;2022-12-07T15:29:02;10.90;;;4.03;;
60292;SDS011;52402;52.670;6.750;2022-12-07T15:31:28;12.30;;;3.20;;
60292;SDS011;52402;52.670;6.750;2022-12-07T15:33:54;11.18;;;3.20;;
60292;SDS011;52402;52.670;6.750;2022-12-07T15:36:21;10.65;;;3.35;;
60292;SDS011;52402;52.670;6.750;2022-12-07T15:38:48;14.57;;;3.80;;
60292;SDS011;52402;52.670;6.750;2022-12-07T15:41:14;11.77;;;3.35;;
60292;SDS011;52402;52.670;6.750;2022-12-07T15:43:40;10.00;;;2.90;;
60292;SDS011;52402;52.670;6.750;2022-12-07T15:46:28;9.30;;;3.15;;
60292;SDS011;52402;52.670;6.750;2022-12-07T15:48:55;11.02;;;3.33;;
60292;SDS011;52402;52.670;6.750;2022-12-07T15:51:21;12.13;;;3.45;;
60292;SDS011;52402;52.670;6.750;2022-12-07T15:53:47;9.75;;;3.47;;
60292;SDS011;52402;52.670;6.750;2022-12-07T15:56:12;11.90;;;3.40;;
60292;SDS011;52402;52.670;6.750;2022-12-07T15:58:38;12.57;;;3.70;;
60292;SDS011;52402;52.670;6.750;2022-12-07T16:01:13;13.07;;;3.47;;
60292;SDS011;52402;52.670;6.750;2022-12-07T16:03:41;11.73;;;3.08;;
60292;SDS011;52402;52.670;6.750;2022-12-07T16:06:06;9.88;;;3.30;;
60292;SDS011;52402;52.670;6.750;2022-12-07T16:08:32;12.50;;;3.70;;
60292;SDS011;52402;52.670;6.750;2022-12-07T16:10:58;11.80;;;3.60;;
60292;SDS011;52402;52.670;6.750;2022-12-07T16:13:23;10.43;;;3.88;;
60292;SDS011;52402;52.670;6.750;2022-12-07T16:15:49;8.73;;;2.85;;
60292;SDS011;52402;52.670;6.750;2022-12-07T16:18:15;9.35;;;3.00;;
60292;SDS011;52402;52.670;6.750;2022-12-07T16:20:40;9.88;;;3.33;;
60292;SDS011;52402;52.670;6.750;2022-12-07T16:23:06;7.85;;;3.22;;
60292;SDS011;52402;52.670;6.750;2022-12-07T16:25:32;8.95;;;3.33;;
60292;SDS011;52402;52.670;6.750;2022-12-07T16:27:58;8.35;;;2.75;;
60292;SDS011;52402;52.670;6.750;2022-12-07T16:30:24;9.07;;;3.22;;
60292;SDS011;52402;52.670;6.750;2022-12-07T16:32:50;9.70;;;3.60;;
60292;SDS011;52402;52.670;6.750;2022-12-07T16:35:16;10.02;;;2.83;;
60292;SDS011;52402;52.670;6.750;2022-12-07T16:37:42;10.57;;;3.08;;
60292;SDS011;52402;52.670;6.750;2022-12-07T16:40:08;8.82;;;2.80;;
60292;SDS011;52402;52.670;6.750;2022-12-07T16:42:35;4.25;;;1.70;;
60292;SDS011;52402;52.670;6.750;2022-12-07T16:45:01;9.77;;;3.03;;
60292;SDS011;52402;52.670;6.750;2022-12-07T16:47:30;9.77;;;3.20;;
60292;SDS011;52402;52.670;6.750;2022-12-07T16:49:56;6.72;;;2.42;;
60292;SDS011;52402;52.670;6.750;2022-12-07T16:52:22;6.50;;;2.60;;
60292;SDS011;52402;52.670;6.750;2022-12-07T16:54:48;10.73;;;2.97;;
60292;SDS011;52402;52.670;6.750;2022-12-07T16:57:14;8.52;;;3.10;;
60292;SDS011;52402;52.670;6.750;2022-12-07T16:59:41;8.48;;;3.13;;
60292;SDS011;52402;52.670;6.750;2022-12-07T17:02:08;11.70;;;3.45;;
60292;SDS011;52402;52.670;6.750;2022-12-07T17:04:36;9.77;;;3.47;;
60292;SDS011;52402;52.670;6.750;2022-12-07T17:07:05;8.85;;;3.17;;
60292;SDS011;52402;52.670;6.750;2022-12-07T17:09:31;6.85;;;3.35;;
60292;SDS011;52402;52.670;6.750;2022-12-07T17:11:56;10.48;;;3.50;;
60292;SDS011;52402;52.670;6.750;2022-12-07T17:14:22;7.82;;;3.60;;
60292;SDS011;52402;52.670;6.750;2022-12-07T17:17:06;8.65;;;3.38;;
60292;SDS011;52402;52.670;6.750;2022-12-07T17:19:32;8.98;;;3.58;;
60292;SDS011;52402;52.670;6.750;2022-12-07T17:21:58;9.32;;;3.70;;
60292;SDS011;52402;52.670;6.750;2022-12-07T17:24:23;9.07;;;3.85;;
60292;SDS011;52402;52.670;6.750;2022-12-07T17:26:49;10.40;;;3.95;;
60292;SDS011;52402;52.670;6.750;2022-12-07T17:29:16;9.85;;;4.07;;
60292;SDS011;52402;52.670;6.750;2022-12-07T17:31:42;10.10;;;4.32;;